Ostrava, Czech Republic
Current Conditions -  °F | °C
As of 12:00 PM on Saturday 29 Nov 2014 (Local Time) from LKMT Reporting Station
Overcast Overcast  
Wind Chill: 18°   Ceiling: 1200
Heat Index: 28°   Visibility: 4mi
Dew Point: 23°   Wind: 12mph
Humidity: 80%   Direction: 30°NNE
Pressure: 30.21"   Gusts: NA
Location:  49.83°N, 18.27°E
Report Text: LKMT 291000Z 03010KT 7000 OVC012 M02/M05 Q1023 NOSIG
Loading
Personal Weather Stations






























Interactive Weather Map New forecast layout! Learn more

10-Day Weather Forecast

Advertisements
Track Severe Weather on mobile